Terminal Aerodrome Forecast
Issued by NWS Louisville, KY

Home | Current Version | Previous Version | Text Only | Print | Product List | Glossary On
Versions: 1 2 3 4 5 6 7 8 9 10 11 12 13 14 15
515
FTUS43 KLMK 240912 AAA
TAFBWG
TAF AMD
KBWG 240912Z 2409/2506 VRB03KT P6SM VCSH OVC009
      TEMPO 2409/2413 OVC011
     FM241700 31008KT P6SM OVC011 PROB30 2418/2424 4SM -SHRA OVC009
     FM250200 32008KT P6SM OVC008=

USA.gov is the U.S. government's official web portal to all federal, state and local government web resources and services.